createdAt,value
2022-09-28T00:00:42.004Z,1.10
2022-09-28T00:01:45.122Z,1.00
2022-09-28T00:02:47.119Z,1.40
2022-09-28T00:03:51.287Z,1.20
2022-09-28T00:04:52.983Z,1.03
2022-09-28T00:06:02.318Z,1.10
2022-09-28T00:07:04.162Z,1.00
2022-09-28T00:08:05.922Z,0.90
2022-09-28T00:09:07.801Z,0.90
2022-09-28T00:10:10.076Z,1.03
2022-09-28T00:11:15.219Z,1.03
2022-09-28T00:12:16.915Z,0.90
2022-09-28T00:13:18.610Z,1.03
2022-09-28T00:14:21.156Z,1.10
2022-09-28T00:15:24.674Z,1.20
2022-09-28T00:16:29.427Z,1.10
2022-09-28T00:17:31.192Z,1.00
2022-09-28T00:18:33.331Z,1.10
2022-09-28T00:19:35.082Z,1.07
2022-09-28T00:20:37.677Z,1.10
2022-09-28T00:21:41.349Z,1.00
2022-09-28T00:22:43.038Z,1.07
2022-09-28T00:24:04.408Z,1.30
2022-09-28T00:25:07.322Z,1.00
2022-09-28T00:26:09.007Z,1.10
2022-09-28T00:27:10.846Z,1.30
2022-09-28T00:28:12.502Z,1.45
2022-09-28T00:29:20.165Z,1.43
2022-09-28T00:30:21.965Z,1.80
2022-09-28T00:31:25.085Z,2.20
2022-09-28T00:32:27.960Z,1.93
2022-09-28T00:33:29.676Z,1.80
2022-09-28T00:34:37.479Z,1.50
2022-09-28T00:35:39.396Z,2.30
2022-09-28T00:36:45.580Z,1.50
2022-09-28T00:37:49.327Z,1.70
2022-09-28T00:38:52.262Z,1.90
2022-09-28T00:39:53.937Z,1.50
2022-09-28T00:40:56.010Z,1.40
2022-09-28T00:41:58.270Z,1.60
2022-09-28T00:43:19.952Z,1.40
2022-09-28T00:44:24.441Z,1.40
2022-09-28T00:45:27.125Z,1.40
2022-09-28T00:46:33.367Z,1.33
2022-09-28T00:47:53.341Z,1.30
2022-09-28T00:49:03.266Z,1.40
2022-09-28T00:50:28.872Z,1.30
2022-09-28T00:51:31.885Z,1.60
2022-09-28T00:52:42.246Z,1.38
2022-09-28T00:53:44.711Z,1.35
2022-09-28T00:54:47.887Z,1.58
2022-09-28T00:55:54.076Z,1.97
2022-09-28T00:56:56.254Z,2.70
2022-09-28T00:58:01.091Z,1.83
2022-09-28T00:59:04.691Z,1.60
2022-09-28T01:00:07.616Z,1.48
2022-09-28T01:01:09.519Z,1.53
2022-09-28T01:02:11.747Z,1.60
2022-09-28T01:03:14.347Z,1.50
2022-09-28T01:04:16.273Z,1.43
2022-09-28T01:05:18.359Z,1.40
2022-09-28T01:06:22.511Z,1.60
2022-09-28T01:07:24.367Z,1.25
2022-09-28T01:08:28.819Z,1.30
2022-09-28T01:09:30.966Z,1.40
2022-09-28T01:10:33.360Z,1.70
2022-09-28T01:11:38.457Z,1.70
2022-09-28T01:12:40.245Z,1.40
2022-09-28T01:13:43.321Z,1.60
2022-09-28T01:14:45.408Z,1.33
2022-09-28T01:15:59.924Z,1.40
2022-09-28T01:17:15.456Z,1.60
2022-09-28T01:18:37.063Z,1.60
2022-09-28T01:20:07.791Z,1.40
2022-09-28T01:21:12.898Z,1.30
2022-09-28T01:22:35.798Z,1.40
2022-09-28T01:24:10.245Z,1.30
2022-09-28T01:25:21.092Z,1.30
2022-09-28T01:26:56.379Z,1.20
2022-09-28T01:28:04.864Z,1.40
2022-09-28T01:29:22.174Z,1.20
2022-09-28T01:30:24.269Z,1.37
2022-09-28T01:31:31.219Z,1.30
2022-09-28T01:32:58.599Z,1.40
2022-09-28T01:34:06.743Z,1.30
2022-09-28T01:35:15.920Z,1.30
2022-09-28T01:36:42.742Z,1.80
2022-09-28T01:37:59.788Z,1.47
2022-09-28T01:39:14.971Z,1.40
2022-09-28T01:40:19.119Z,1.50
2022-09-28T01:41:23.965Z,1.40
2022-09-28T01:42:31.485Z,1.50
2022-09-28T01:43:39.097Z,1.47
2022-09-28T01:44:45.373Z,1.37
2022-09-28T01:45:52.107Z,1.50
2022-09-28T01:46:54.169Z,1.40
2022-09-28T01:48:00.755Z,1.60
2022-09-28T01:49:16.389Z,1.38
2022-09-28T01:50:22.411Z,1.60
2022-09-28T01:51:36.403Z,1.20
2022-09-28T01:52:48.039Z,1.60
2022-09-28T01:53:55.798Z,1.50
2022-09-28T01:55:18.514Z,1.50
2022-09-28T01:56:29.663Z,1.40
2022-09-28T01:57:37.882Z,1.30
2022-09-28T01:58:46.445Z,1.50
2022-09-28T01:59:55.880Z,1.40
2022-09-28T02:01:05.209Z,1.40
2022-09-28T02:02:16.362Z,1.47
2022-09-28T02:03:40.372Z,1.50
2022-09-28T02:04:49.563Z,1.30
2022-09-28T02:06:00.730Z,1.40
2022-09-28T02:07:11.920Z,1.30
2022-09-28T02:08:26.762Z,1.50
2022-09-28T02:09:56.049Z,1.10
2022-09-28T02:11:01.545Z,1.30
2022-09-28T02:12:18.171Z,1.40
2022-09-28T02:13:33.811Z,1.90
2022-09-28T02:14:38.816Z,1.47
2022-09-28T02:15:50.991Z,1.23
2022-09-28T02:16:54.356Z,1.37
2022-09-28T02:17:56.575Z,1.23
2022-09-28T02:18:58.698Z,1.30
2022-09-28T02:20:00.449Z,1.83
2022-09-28T02:21:31.464Z,1.40
2022-09-28T02:22:49.287Z,1.57
2022-09-28T02:24:01.482Z,1.10
2022-09-28T02:25:19.239Z,1.50
2022-09-28T02:26:24.872Z,1.37
2022-09-28T02:27:50.841Z,1.40
2022-09-28T02:28:52.657Z,2.10
2022-09-28T02:29:54.362Z,1.30
2022-09-28T02:30:56.387Z,1.60
2022-09-28T02:31:58.298Z,1.52
2022-09-28T02:33:07.340Z,1.70
2022-09-28T02:34:09.639Z,1.50
2022-09-28T02:35:13.607Z,1.67
2022-09-28T02:36:15.687Z,1.67
2022-09-28T02:37:17.517Z,1.63
2022-09-28T02:38:19.253Z,1.50
2022-09-28T02:39:21.082Z,1.57
2022-09-28T02:40:29.012Z,1.73
2022-09-28T02:41:33.856Z,1.55
2022-09-28T02:42:54.167Z,1.80
2022-09-28T02:44:32.321Z,1.58
2022-09-28T02:45:55.492Z,1.60
2022-09-28T02:47:03.402Z,1.75
2022-09-28T02:48:16.017Z,1.60
2022-09-28T02:49:49.476Z,1.43
2022-09-28T02:50:54.224Z,1.23
2022-09-28T02:51:56.106Z,1.45
2022-09-28T02:53:26.630Z,1.67
2022-09-28T02:54:56.141Z,1.50
2022-09-28T02:56:22.757Z,1.40
2022-09-28T02:57:45.604Z,1.60
2022-09-28T02:58:59.531Z,1.60
2022-09-28T03:00:11.386Z,1.40
2022-09-28T03:01:30.517Z,1.20
2022-09-28T03:02:37.971Z,1.50
2022-09-28T03:03:50.723Z,1.40
2022-09-28T03:04:58.634Z,1.80
2022-09-28T03:06:34.066Z,1.23
2022-09-28T03:07:57.591Z,1.57
2022-09-28T03:09:17.403Z,1.50
2022-09-28T03:10:43.057Z,1.23
2022-09-28T03:11:53.199Z,1.33
2022-09-28T03:12:55.562Z,1.60
2022-09-28T03:13:57.810Z,1.37
2022-09-28T03:15:20.048Z,1.90
2022-09-28T03:16:21.783Z,1.50
2022-09-28T03:17:23.538Z,1.70
2022-09-28T03:18:25.271Z,1.53
2022-09-28T03:19:32.164Z,1.58
2022-09-28T03:20:34.791Z,1.37
2022-09-28T03:21:36.551Z,1.60
2022-09-28T03:22:39.003Z,1.43
2022-09-28T03:23:41.452Z,1.57
2022-09-28T03:24:43.104Z,2.40
2022-09-28T03:25:44.789Z,2.07
2022-09-28T03:26:46.597Z,1.60
2022-09-28T03:27:48.330Z,1.93
2022-09-28T03:28:50.010Z,1.80
2022-09-28T03:29:51.672Z,2.30
2022-09-28T03:30:53.812Z,2.17
2022-09-28T03:31:55.637Z,2.08
2022-09-28T03:32:59.284Z,2.10
2022-09-28T03:34:01.050Z,1.90
2022-09-28T03:35:02.848Z,1.90
2022-09-28T03:36:04.655Z,1.57
2022-09-28T03:37:06.369Z,1.83
2022-09-28T03:38:08.093Z,1.75
2022-09-28T03:39:09.795Z,1.70
2022-09-28T03:40:11.455Z,2.33
2022-09-28T03:41:13.245Z,1.93
2022-09-28T03:42:15.045Z,1.73
2022-09-28T03:43:16.708Z,1.88
2022-09-28T03:44:18.357Z,1.70
2022-09-28T03:45:20.044Z,1.60
2022-09-28T03:46:21.865Z,1.40
2022-09-28T03:47:23.681Z,1.67
2022-09-28T03:48:32.045Z,1.70
2022-09-28T03:49:34.751Z,1.53
2022-09-28T03:50:36.423Z,1.50
2022-09-28T03:51:38.239Z,1.80
2022-09-28T03:52:39.945Z,1.40
2022-09-28T03:53:41.734Z,1.30
2022-09-28T03:54:48.320Z,1.35
2022-09-28T03:55:53.215Z,1.70
2022-09-28T03:56:54.903Z,1.63
2022-09-28T03:57:56.697Z,1.40
2022-09-28T03:58:58.429Z,1.30
2022-09-28T04:00:00.255Z,1.67
2022-09-28T04:01:07.812Z,1.50
2022-09-28T04:02:10.900Z,1.30
2022-09-28T04:03:12.698Z,1.42
2022-09-28T04:04:14.530Z,1.30
2022-09-28T04:05:16.338Z,1.60
2022-09-28T04:06:18.036Z,1.70
2022-09-28T04:07:19.717Z,1.17
2022-09-28T04:08:21.555Z,1.13
2022-09-28T04:09:23.200Z,1.23
2022-09-28T04:10:25.879Z,1.42
2022-09-28T04:11:34.896Z,1.50
2022-09-28T04:12:45.930Z,1.60
2022-09-28T04:13:50.755Z,1.33
2022-09-28T04:14:52.464Z,2.10
2022-09-28T04:16:00.284Z,1.80
2022-09-28T04:17:02.081Z,1.70
2022-09-28T04:18:04.607Z,1.53
2022-09-28T04:19:06.468Z,1.50
2022-09-28T04:20:08.983Z,1.80
2022-09-28T04:21:12.498Z,1.48
2022-09-28T04:22:14.212Z,2.30
2022-09-28T04:23:15.874Z,2.00
2022-09-28T04:24:18.753Z,1.90
2022-09-28T04:25:20.571Z,1.40
2022-09-28T04:26:27.005Z,1.40
2022-09-28T04:27:47.312Z,1.00
2022-09-28T04:29:08.374Z,1.30
2022-09-28T04:30:11.022Z,1.30
2022-09-28T04:31:19.019Z,1.30
2022-09-28T04:32:21.538Z,1.40
2022-09-28T04:33:23.305Z,1.00
2022-09-28T04:34:25.014Z,1.23
2022-09-28T04:35:26.664Z,0.98
2022-09-28T04:36:28.427Z,1.17
2022-09-28T04:37:31.255Z,1.30
2022-09-28T04:38:51.841Z,0.97
2022-09-28T04:39:54.257Z,1.17
2022-09-28T04:40:55.966Z,0.82
2022-09-28T04:41:57.833Z,1.20
2022-09-28T04:42:59.544Z,1.00
2022-09-28T04:44:01.560Z,1.00
2022-09-28T04:45:04.790Z,1.10
2022-09-28T04:46:06.767Z,1.13
2022-09-28T04:47:08.551Z,1.13
2022-09-28T04:48:10.224Z,1.00
2022-09-28T04:49:11.970Z,0.93
2022-09-28T04:50:13.836Z,0.90
2022-09-28T04:51:15.587Z,0.90
2022-09-28T04:52:18.474Z,0.93
2022-09-28T04:53:20.721Z,0.82
2022-09-28T04:54:22.479Z,0.90
2022-09-28T04:55:24.331Z,1.07
2022-09-28T04:56:26.092Z,0.80
2022-09-28T04:57:27.830Z,1.10
2022-09-28T04:58:30.201Z,0.90
2022-09-28T04:59:32.000Z,1.00
2022-09-28T05:00:35.300Z,1.00
2022-09-28T05:01:37.709Z,1.00
2022-09-28T05:02:39.604Z,1.00
2022-09-28T05:03:42.255Z,1.05
2022-09-28T05:04:43.976Z,0.90
2022-09-28T05:05:46.070Z,0.88
2022-09-28T05:06:47.724Z,1.02
2022-09-28T05:07:49.402Z,1.10
2022-09-28T05:08:51.847Z,1.15
2022-09-28T05:09:55.249Z,1.15
2022-09-28T05:11:02.061Z,1.20
2022-09-28T05:12:04.027Z,1.00
2022-09-28T05:13:06.364Z,1.10
2022-09-28T05:14:08.176Z,1.00
2022-09-28T05:15:10.398Z,1.02
2022-09-28T05:16:14.186Z,0.88
2022-09-28T05:17:15.898Z,1.00
2022-09-28T05:18:17.563Z,0.88
2022-09-28T05:19:19.315Z,1.05
2022-09-28T05:20:21.020Z,0.93
2022-09-28T05:21:25.338Z,1.20
2022-09-28T05:22:26.992Z,1.00
2022-09-28T05:23:28.665Z,0.98
2022-09-28T05:24:31.187Z,0.75
2022-09-28T05:25:34.107Z,0.90
2022-09-28T05:26:35.895Z,1.00
2022-09-28T05:27:37.560Z,0.90
2022-09-28T05:28:39.253Z,1.00
2022-09-28T05:29:40.960Z,1.17
2022-09-28T05:30:42.622Z,1.30
2022-09-28T05:31:44.404Z,0.90
2022-09-28T05:32:46.191Z,1.00
2022-09-28T05:33:47.881Z,0.88
2022-09-28T05:34:49.549Z,0.90
2022-09-28T05:35:55.107Z,0.90
2022-09-28T05:36:58.639Z,0.90
2022-09-28T05:38:05.435Z,1.00
2022-09-28T05:39:07.253Z,1.10
2022-09-28T05:40:09.542Z,0.95
2022-09-28T05:41:11.699Z,0.90
2022-09-28T05:42:13.391Z,0.70
2022-09-28T05:43:15.209Z,1.05
2022-09-28T05:44:16.998Z,0.90
2022-09-28T05:45:18.892Z,1.90
2022-09-28T05:46:21.836Z,0.90
2022-09-28T05:47:23.655Z,1.07
2022-09-28T05:48:25.769Z,1.10
2022-09-28T05:49:29.188Z,1.07
2022-09-28T05:50:30.966Z,0.97
2022-09-28T05:51:32.693Z,1.00
2022-09-28T05:52:34.391Z,0.80
2022-09-28T05:53:36.480Z,1.08
2022-09-28T05:54:38.177Z,1.10
2022-09-28T05:55:39.977Z,1.10
2022-09-28T05:56:41.799Z,1.10
2022-09-28T05:57:43.486Z,1.15
2022-09-28T05:58:45.182Z,1.13
2022-09-28T05:59:46.879Z,1.03
2022-09-28T06:00:57.402Z,1.13
2022-09-28T06:01:59.203Z,0.90
2022-09-28T06:03:08.044Z,1.30
2022-09-28T06:04:10.865Z,0.97
2022-09-28T06:05:12.696Z,0.98
2022-09-28T06:06:14.362Z,1.10
2022-09-28T06:07:16.157Z,1.30
2022-09-28T06:08:18.063Z,1.03
2022-09-28T06:09:23.815Z,0.90
2022-09-28T06:10:28.612Z,0.90
2022-09-28T06:11:31.939Z,1.17
2022-09-28T06:12:34.215Z,1.50
2022-09-28T06:13:36.043Z,1.30
2022-09-28T06:14:38.951Z,1.08
2022-09-28T06:15:42.603Z,1.02
2022-09-28T06:16:44.948Z,0.97
2022-09-28T06:17:46.718Z,1.50
2022-09-28T06:18:48.507Z,1.03
2022-09-28T06:19:52.364Z,0.93
2022-09-28T06:20:54.041Z,1.00
2022-09-28T06:21:58.427Z,1.35
2022-09-28T06:23:01.009Z,0.80
2022-09-28T06:24:04.026Z,1.00
2022-09-28T06:25:07.038Z,1.10
2022-09-28T06:26:08.799Z,1.10
2022-09-28T06:27:10.468Z,1.20
2022-09-28T06:28:14.491Z,1.40
2022-09-28T06:29:19.785Z,1.40
2022-09-28T06:30:22.231Z,1.33
2022-09-28T06:31:24.987Z,1.30
2022-09-28T06:32:29.178Z,1.50
2022-09-28T06:33:30.910Z,1.30
2022-09-28T06:34:32.707Z,1.37
2022-09-28T06:35:35.433Z,1.40
2022-09-28T06:36:37.215Z,1.10
2022-09-28T06:37:38.899Z,1.10
2022-09-28T06:38:40.681Z,1.20
2022-09-28T06:39:42.355Z,1.23
2022-09-28T06:40:44.136Z,1.05
2022-09-28T06:41:45.829Z,1.20
2022-09-28T06:43:10.551Z,1.13
2022-09-28T06:44:12.427Z,1.00
2022-09-28T06:45:14.150Z,1.13
2022-09-28T06:46:15.989Z,1.20
2022-09-28T06:47:17.819Z,1.00
2022-09-28T06:48:19.717Z,1.30
2022-09-28T06:49:22.114Z,1.10
2022-09-28T06:50:25.681Z,1.15
2022-09-28T06:51:27.446Z,1.30
2022-09-28T06:52:29.149Z,1.10
2022-09-28T06:53:31.681Z,2.08
2022-09-28T06:54:33.327Z,1.65
2022-09-28T06:55:38.474Z,1.75
2022-09-28T06:56:40.422Z,1.45
2022-09-28T06:57:42.225Z,1.30
2022-09-28T06:58:43.910Z,1.40
2022-09-28T06:59:45.619Z,1.58
2022-09-28T07:00:49.943Z,1.50
2022-09-28T07:01:51.726Z,1.45
2022-09-28T07:02:53.529Z,1.67
2022-09-28T07:03:55.899Z,1.87
2022-09-28T07:04:57.684Z,1.58
2022-09-28T07:05:59.400Z,1.67
2022-09-28T07:07:01.315Z,1.77
2022-09-28T07:08:04.824Z,1.43
2022-09-28T07:09:22.362Z,1.60
2022-09-28T07:10:30.928Z,1.33
2022-09-28T07:11:40.729Z,1.38
2022-09-28T07:12:42.423Z,1.23
2022-09-28T07:13:50.805Z,1.30
2022-09-28T07:14:57.410Z,1.38
2022-09-28T07:16:02.498Z,1.80
2022-09-28T07:17:13.586Z,1.60
2022-09-28T07:18:17.832Z,1.52
2022-09-28T07:19:19.553Z,1.67
2022-09-28T07:20:21.289Z,1.50
2022-09-28T07:21:29.877Z,1.80
2022-09-28T07:22:42.209Z,1.60
2022-09-28T07:23:52.397Z,1.60
2022-09-28T07:24:55.701Z,1.60
2022-09-28T07:25:58.265Z,1.83
2022-09-28T07:26:59.943Z,1.58
2022-09-28T07:28:02.894Z,1.75
2022-09-28T07:29:04.937Z,1.80
2022-09-28T07:30:07.356Z,1.63
2022-09-28T07:31:09.655Z,1.58
2022-09-28T07:32:11.383Z,2.08
2022-09-28T07:33:15.845Z,1.60
2022-09-28T07:34:18.581Z,1.65
2022-09-28T07:35:20.445Z,1.88
2022-09-28T07:36:22.868Z,1.50
2022-09-28T07:37:26.513Z,1.58
2022-09-28T07:38:28.207Z,1.77
2022-09-28T07:39:29.927Z,2.03
2022-09-28T07:40:51.919Z,1.80
2022-09-28T07:41:56.725Z,1.75
2022-09-28T07:43:05.591Z,1.83
2022-09-28T07:44:07.455Z,1.65
2022-09-28T07:45:09.578Z,1.67
2022-09-28T07:46:12.347Z,1.63
2022-09-28T07:47:14.383Z,1.80
2022-09-28T07:48:17.157Z,1.67
2022-09-28T07:49:19.325Z,1.87
2022-09-28T07:50:21.481Z,1.50
2022-09-28T07:51:23.222Z,1.80
2022-09-28T07:52:26.243Z,1.80
2022-09-28T07:53:28.489Z,1.70
2022-09-28T07:54:31.273Z,1.85
2022-09-28T07:55:32.982Z,1.75
2022-09-28T07:56:35.065Z,1.67
2022-09-28T07:57:36.766Z,1.63
2022-09-28T07:58:39.378Z,1.98
2022-09-28T07:59:41.094Z,1.75
2022-09-28T08:00:44.967Z,2.38
2022-09-28T08:01:49.457Z,1.63
2022-09-28T08:02:51.456Z,1.80
2022-09-28T08:03:56.350Z,1.70
2022-09-28T08:04:58.194Z,1.93
2022-09-28T08:06:01.305Z,1.85
2022-09-28T08:07:03.329Z,1.67
2022-09-28T08:08:05.059Z,1.93
2022-09-28T08:09:06.846Z,1.95
2022-09-28T08:10:08.971Z,1.85
2022-09-28T08:11:18.749Z,1.75
2022-09-28T08:12:21.204Z,1.80
2022-09-28T08:13:27.009Z,1.98
2022-09-28T08:14:29.639Z,1.60
2022-09-28T08:15:38.229Z,1.75
2022-09-28T08:16:40.457Z,1.90
2022-09-28T08:17:46.847Z,1.77
2022-09-28T08:18:51.312Z,2.03
2022-09-28T08:20:11.865Z,1.65
2022-09-28T08:21:32.497Z,1.95
2022-09-28T08:22:34.232Z,1.77
2022-09-28T08:23:37.122Z,1.92
2022-09-28T08:24:38.774Z,2.05
2022-09-28T08:25:40.636Z,1.80
2022-09-28T08:26:45.000Z,1.70
2022-09-28T08:27:46.771Z,1.92
2022-09-28T08:28:48.553Z,2.17
2022-09-28T08:29:50.223Z,1.80
2022-09-28T08:30:52.156Z,1.60
2022-09-28T08:31:56.350Z,1.88
2022-09-28T08:33:01.178Z,2.00
2022-09-28T08:34:03.300Z,2.10
2022-09-28T08:35:05.277Z,2.55
2022-09-28T08:36:07.155Z,2.00
2022-09-28T08:37:09.643Z,2.17
2022-09-28T08:38:11.439Z,1.70
2022-09-28T08:39:13.120Z,1.85
2022-09-28T08:40:24.968Z,1.92
2022-09-28T08:41:48.273Z,2.55
2022-09-28T08:42:52.089Z,1.90
2022-09-28T08:43:56.838Z,2.08
2022-09-28T08:45:07.171Z,1.90
2022-09-28T08:46:11.545Z,1.90
2022-09-28T08:47:44.592Z,2.00
2022-09-28T08:49:25.071Z,2.20
2022-09-28T08:50:31.964Z,1.80
2022-09-28T08:51:48.994Z,2.05
2022-09-28T08:52:57.595Z,1.50
2022-09-28T08:54:14.735Z,1.92
2022-09-28T08:55:38.923Z,2.00
2022-09-28T08:56:50.310Z,3.35
2022-09-28T08:58:21.835Z,2.40
2022-09-28T08:59:26.861Z,2.70
2022-09-28T09:00:52.940Z,2.63
2022-09-28T09:02:01.636Z,2.30
2022-09-28T09:03:09.680Z,2.30
2022-09-28T09:04:12.187Z,1.92
2022-09-28T09:05:19.083Z,1.92
2022-09-28T09:06:35.885Z,2.10
2022-09-28T09:07:52.662Z,1.85
2022-09-28T09:09:03.114Z,1.95
2022-09-28T09:10:33.844Z,1.60
2022-09-28T09:11:43.155Z,1.70
2022-09-28T09:13:12.306Z,1.92
2022-09-28T09:14:13.971Z,1.52
2022-09-28T09:15:21.490Z,1.88
2022-09-28T09:16:33.357Z,2.05
2022-09-28T09:17:56.358Z,1.95
2022-09-28T09:19:16.317Z,2.00
2022-09-28T09:20:42.958Z,1.98
2022-09-28T09:22:11.321Z,2.00
2022-09-28T09:23:36.531Z,1.85
2022-09-28T09:25:16.282Z,1.67
2022-09-28T09:26:24.849Z,1.67
2022-09-28T09:27:47.541Z,1.77
2022-09-28T09:29:01.174Z,1.60
2022-09-28T09:30:25.657Z,1.92
2022-09-28T09:31:47.138Z,1.85
2022-09-28T09:33:10.420Z,1.75
2022-09-28T09:34:12.026Z,1.50
2022-09-28T09:35:37.438Z,1.90
2022-09-28T09:36:39.112Z,1.48
2022-09-28T09:37:40.838Z,1.35
2022-09-28T09:39:06.779Z,1.77
2022-09-28T09:40:49.100Z,1.60
2022-09-28T09:42:15.011Z,1.67
2022-09-28T09:43:42.113Z,2.08
2022-09-28T09:44:52.780Z,1.77
2022-09-28T09:46:17.389Z,1.80
2022-09-28T09:47:49.295Z,1.77
2022-09-28T09:48:58.834Z,1.90
2022-09-28T09:50:31.534Z,2.00
2022-09-28T09:51:47.692Z,2.08
2022-09-28T09:52:57.241Z,1.80
2022-09-28T09:54:10.351Z,1.60
2022-09-28T09:55:29.651Z,1.73
2022-09-28T09:56:50.915Z,1.73
2022-09-28T09:58:00.074Z,1.73
2022-09-28T09:59:13.605Z,1.95
2022-09-28T10:00:16.970Z,2.10
2022-09-28T10:01:23.230Z,2.20
2022-09-28T10:02:30.647Z,1.90
2022-09-28T10:03:35.949Z,1.70
2022-09-28T10:04:43.178Z,2.10
2022-09-28T10:05:52.392Z,1.60
2022-09-28T10:07:01.202Z,1.65
2022-09-28T10:08:08.763Z,1.80
2022-09-28T10:09:16.641Z,1.92
2022-09-28T10:10:35.924Z,1.77
2022-09-28T10:11:42.441Z,1.60
2022-09-28T10:12:44.551Z,1.60
2022-09-28T10:13:49.545Z,1.75
2022-09-28T10:14:51.387Z,1.60
2022-09-28T10:15:53.307Z,1.70
2022-09-28T10:16:57.968Z,1.42
2022-09-28T10:18:06.646Z,1.40
2022-09-28T10:19:11.922Z,1.92
2022-09-28T10:20:16.137Z,2.05
2022-09-28T10:21:21.547Z,1.60
2022-09-28T10:22:26.247Z,1.63
2022-09-28T10:23:33.838Z,1.50
2022-09-28T10:24:41.584Z,1.80
2022-09-28T10:25:46.283Z,2.03
2022-09-28T10:26:52.665Z,1.70
2022-09-28T10:27:55.304Z,2.03
2022-09-28T10:29:03.575Z,1.63
2022-09-28T10:30:11.328Z,1.75
2022-09-28T10:31:38.049Z,1.75
2022-09-28T10:32:44.883Z,1.98
2022-09-28T10:33:46.572Z,1.92
2022-09-28T10:34:50.899Z,2.22
2022-09-28T10:35:53.025Z,2.10
2022-09-28T10:37:01.070Z,1.80
2022-09-28T10:38:11.570Z,2.10
2022-09-28T10:39:36.637Z,2.10
2022-09-28T10:41:01.524Z,2.40
2022-09-28T10:42:12.436Z,2.92
2022-09-28T10:43:38.786Z,2.30
2022-09-28T10:45:01.335Z,2.55
2022-09-28T10:46:23.344Z,2.10
2022-09-28T10:47:28.469Z,1.88
2022-09-28T10:48:32.788Z,1.65
2022-09-28T10:49:46.755Z,1.88
2022-09-28T10:51:06.803Z,1.80
2022-09-28T10:52:36.214Z,2.00
2022-09-28T10:53:39.091Z,1.52
2022-09-28T10:54:53.535Z,1.77
2022-09-28T10:56:08.646Z,1.80
2022-09-28T10:57:33.881Z,1.83
2022-09-28T10:58:42.974Z,2.05
2022-09-28T10:59:46.686Z,2.00
2022-09-28T11:00:49.900Z,2.00
2022-09-28T11:02:04.028Z,2.00
2022-09-28T11:03:06.458Z,1.95
2022-09-28T11:04:21.782Z,1.80
2022-09-28T11:05:30.192Z,1.77
2022-09-28T11:06:36.722Z,1.58
2022-09-28T11:07:46.752Z,2.05
2022-09-28T11:08:50.098Z,2.00
2022-09-28T11:09:54.490Z,1.80
2022-09-28T11:11:11.796Z,1.50
2022-09-28T11:12:43.486Z,1.90
2022-09-28T11:13:46.674Z,1.65
2022-09-28T11:14:54.897Z,2.10
2022-09-28T11:15:56.905Z,1.67
2022-09-28T11:17:27.294Z,1.60
2022-09-28T11:18:32.206Z,2.08
2022-09-28T11:19:33.911Z,1.67
2022-09-28T11:20:35.988Z,2.42
2022-09-28T11:21:43.174Z,2.15
2022-09-28T11:22:46.589Z,2.60
2022-09-28T11:24:19.650Z,1.80
2022-09-28T11:25:26.970Z,2.05
2022-09-28T11:26:40.108Z,2.10
2022-09-28T11:27:42.996Z,1.98
2022-09-28T11:28:51.869Z,1.40
2022-09-28T11:29:57.622Z,1.60
2022-09-28T11:31:01.466Z,1.67
2022-09-28T11:32:06.108Z,1.80
2022-09-28T11:33:15.013Z,1.85
2022-09-28T11:34:36.200Z,2.22
2022-09-28T11:35:54.155Z,1.63
2022-09-28T11:37:21.192Z,1.73
2022-09-28T11:38:33.625Z,1.70
2022-09-28T11:39:48.329Z,1.60
2022-09-28T11:41:10.381Z,1.60
2022-09-28T11:42:30.353Z,1.48
2022-09-28T11:43:56.319Z,1.38
2022-09-28T11:45:36.917Z,1.60
2022-09-28T11:46:54.318Z,1.35
2022-09-28T11:48:03.967Z,1.40
2022-09-28T11:49:30.190Z,1.40
2022-09-28T11:50:52.847Z,1.85
2022-09-28T11:51:57.742Z,1.30
2022-09-28T11:53:22.396Z,1.40
2022-09-28T11:54:38.703Z,1.45
2022-09-28T11:55:46.434Z,1.30
2022-09-28T11:56:50.402Z,1.50
2022-09-28T11:58:08.572Z,1.73
2022-09-28T11:59:30.203Z,1.30
2022-09-28T12:00:38.302Z,1.33
2022-09-28T12:01:51.613Z,1.23
2022-09-28T12:03:13.853Z,1.40
2022-09-28T12:04:54.435Z,1.45
2022-09-28T12:06:03.915Z,1.40
2022-09-28T12:07:11.478Z,1.48
2022-09-28T12:08:25.583Z,1.13
2022-09-28T12:09:43.367Z,1.27
2022-09-28T12:11:00.300Z,1.40
2022-09-28T12:12:10.343Z,1.20
2022-09-28T12:13:19.518Z,1.20
2022-09-28T12:14:28.529Z,1.40
2022-09-28T12:16:11.569Z,1.17
2022-09-28T12:17:30.773Z,1.38
2022-09-28T12:18:44.447Z,1.50
2022-09-28T12:20:01.695Z,1.20
2022-09-28T12:21:29.267Z,1.17
2022-09-28T12:22:56.943Z,1.30
2022-09-28T12:24:14.996Z,1.25
2022-09-28T12:25:22.155Z,1.00
2022-09-28T12:26:27.164Z,1.33
2022-09-28T12:27:43.857Z,1.23
2022-09-28T12:28:50.012Z,1.63
2022-09-28T12:30:12.848Z,1.20
2022-09-28T12:31:23.705Z,1.15
2022-09-28T12:32:31.466Z,1.27
2022-09-28T12:33:33.172Z,1.00
2022-09-28T12:34:34.838Z,1.20
2022-09-28T12:35:58.442Z,1.40
2022-09-28T12:37:15.328Z,1.40
2022-09-28T12:38:38.372Z,1.13
2022-09-28T12:39:58.111Z,1.25
2022-09-28T12:41:22.324Z,1.00
2022-09-28T12:42:52.879Z,1.20
2022-09-28T12:44:06.287Z,1.05
2022-09-28T12:45:27.645Z,1.48
2022-09-28T12:46:35.080Z,1.35
2022-09-28T12:48:13.674Z,1.13
2022-09-28T12:51:15.147Z,1.15
2022-09-28T12:52:48.862Z,1.20
2022-09-28T12:54:20.064Z,1.00
2022-09-28T12:55:24.445Z,1.40
2022-09-28T12:56:33.925Z,1.13
2022-09-28T12:57:49.816Z,1.00
2022-09-28T12:59:18.098Z,1.42
2022-09-28T13:00:23.303Z,1.40
2022-09-28T13:02:06.847Z,1.20
2022-09-28T13:03:45.721Z,1.27
2022-09-28T13:05:15.191Z,1.00
2022-09-28T13:06:45.079Z,1.20
2022-09-28T13:07:56.072Z,1.23
2022-09-28T13:09:20.525Z,0.93
2022-09-28T13:10:43.386Z,1.08
2022-09-28T13:12:10.196Z,1.05
2022-09-28T13:13:47.361Z,1.15
2022-09-28T13:15:23.589Z,0.80
2022-09-28T13:16:41.536Z,1.00
2022-09-28T13:18:05.037Z,1.13
2022-09-28T13:19:30.384Z,1.02
2022-09-28T13:20:50.103Z,0.90
2022-09-28T13:22:06.882Z,0.80
2022-09-28T13:23:11.452Z,1.10
2022-09-28T13:24:32.096Z,1.05
2022-09-28T13:25:40.859Z,0.80
2022-09-28T13:26:46.199Z,0.88
2022-09-28T13:28:04.738Z,0.93
2022-09-28T13:29:16.026Z,0.90
2022-09-28T13:30:19.319Z,1.13
2022-09-28T13:31:29.262Z,0.60
2022-09-28T13:32:36.535Z,1.25
2022-09-28T13:33:39.923Z,0.90
2022-09-28T13:34:41.783Z,1.00
2022-09-28T13:35:44.137Z,1.08
2022-09-28T13:36:48.285Z,1.00
2022-09-28T13:38:18.917Z,1.00
2022-09-28T13:39:46.881Z,0.90
2022-09-28T13:41:09.180Z,1.02
2022-09-28T13:42:30.839Z,0.98
2022-09-28T13:44:01.923Z,0.73
2022-09-28T13:45:20.631Z,0.90
2022-09-28T13:46:22.386Z,1.30
2022-09-28T13:47:54.606Z,0.75
2022-09-28T13:49:24.703Z,0.93
2022-09-28T13:50:44.243Z,0.82
2022-09-28T13:51:51.682Z,1.13
2022-09-28T13:53:23.999Z,0.70
2022-09-28T13:54:41.335Z,1.10
2022-09-28T13:56:15.287Z,1.17
2022-09-28T13:57:30.650Z,0.90
2022-09-28T13:58:53.652Z,0.82
2022-09-28T14:00:28.736Z,1.10
2022-09-28T14:01:37.806Z,0.70
2022-09-28T14:02:47.671Z,1.00
2022-09-28T14:04:15.668Z,1.10
2022-09-28T14:05:23.541Z,1.42
2022-09-28T14:06:29.938Z,0.85
2022-09-28T14:07:34.420Z,1.08
2022-09-28T14:08:45.333Z,1.10
2022-09-28T14:09:48.904Z,1.00
2022-09-28T14:10:58.139Z,1.23
2022-09-28T14:12:23.773Z,1.23
2022-09-28T14:13:43.601Z,1.05
2022-09-28T14:14:52.699Z,0.93
2022-09-28T14:16:17.482Z,0.90
2022-09-28T14:17:19.220Z,0.80
2022-09-28T14:18:29.463Z,1.00
2022-09-28T14:19:33.977Z,1.00
2022-09-28T14:20:36.982Z,1.10
2022-09-28T14:22:01.668Z,0.88
2022-09-28T14:23:25.173Z,1.02
2022-09-28T14:24:32.878Z,0.93
2022-09-28T14:25:41.031Z,1.02
2022-09-28T14:26:55.720Z,1.10
2022-09-28T14:28:28.022Z,1.10
2022-09-28T14:29:37.251Z,1.52
2022-09-28T14:30:42.108Z,1.02
2022-09-28T14:31:45.300Z,1.00
2022-09-28T14:33:21.941Z,0.90
2022-09-28T14:34:34.297Z,0.98
2022-09-28T14:35:45.427Z,1.10
2022-09-28T14:37:07.848Z,1.20
2022-09-28T14:38:37.482Z,1.00
2022-09-28T14:40:03.518Z,1.00
2022-09-28T14:41:17.723Z,0.82
2022-09-28T14:42:24.777Z,1.17
2022-09-28T14:43:44.615Z,1.00
2022-09-28T14:45:06.912Z,1.10
2022-09-28T14:46:11.958Z,1.20
2022-09-28T14:47:52.455Z,0.98
2022-09-28T14:49:01.584Z,1.00
2022-09-28T14:50:26.465Z,0.90
2022-09-28T14:51:30.162Z,0.85
2022-09-28T14:52:41.735Z,0.90
2022-09-28T14:53:44.644Z,1.10
2022-09-28T14:54:53.173Z,1.05
2022-09-28T14:55:58.310Z,1.10
2022-09-28T14:57:12.898Z,1.00
2022-09-28T14:58:27.498Z,1.23
2022-09-28T14:59:35.968Z,0.80
2022-09-28T15:00:38.824Z,1.00
2022-09-28T15:01:42.159Z,1.10
2022-09-28T15:02:49.845Z,1.15
2022-09-28T15:03:55.670Z,1.00
2022-09-28T15:05:16.055Z,0.80
2022-09-28T15:06:20.842Z,0.90
2022-09-28T15:07:29.275Z,1.10
2022-09-28T15:08:38.808Z,1.13
2022-09-28T15:09:41.701Z,0.98
2022-09-28T15:10:50.003Z,0.90
2022-09-28T15:11:57.522Z,1.00
2022-09-28T15:13:01.760Z,0.88
2022-09-28T15:14:08.226Z,0.90
2022-09-28T15:15:32.912Z,1.30
2022-09-28T15:16:34.702Z,1.10
2022-09-28T15:17:40.176Z,1.38
2022-09-28T15:19:06.472Z,1.00
2022-09-28T15:20:31.611Z,0.80
2022-09-28T15:21:42.493Z,0.82
2022-09-28T15:22:48.828Z,1.10
2022-09-28T15:23:50.912Z,0.80